Time;durP1;ratioP1;P1;durP2;ratioP2;P2;SDS_P1;SDS_P2;PMS_P1;PMS_P2;Temp;Humidity;BMP_temperature;BMP_pressure;BME280_temperature;BME280_humidity;BME280_pressure;Samples;Min_cycle;Max_cycle;Signal;HPM_P1;HPM_P2
2022/12/31 00:01:08;;;;;;;;;;;19.40;99.90;;;;;;5032166;28;20319;-74
2022/12/31 00:03:33;;;;;;;;;;;19.20;99.90;;;;;;5034365;28;19979;-73
2022/12/31 00:05:58;;;;;;;;;;;19.20;99.90;;;;;;5036914;28;19971;-71
2022/12/31 00:08:24;;;;;;;;;;;19.40;99.90;;;;;;5041046;28;19913;-72
2022/12/31 00:10:50;;;;;;;;;;;19.40;99.90;;;;;;5038377;28;19917;-72
2022/12/31 00:13:15;;;;;;;;;;;19.60;99.90;;;;;;5042920;28;20027;-73
2022/12/31 00:15:42;;;;;;;;;;;19.60;99.90;;;;;;5041853;28;19909;-72
2022/12/31 00:18:07;;;;;;;;;;;19.50;99.90;;;;;;5038861;28;19954;-72
2022/12/31 00:20:33;;;;;;;;;;;19.70;99.90;;;;;;5040305;28;19959;-72
2022/12/31 00:22:58;;;;;;;;;;;19.60;99.90;;;;;;5042111;28;19920;-72
2022/12/31 00:25:24;;;;;;;;;;;19.70;99.90;;;;;;5038069;28;20063;-71
2022/12/31 00:27:49;;;;;;;;;;;19.70;99.90;;;;;;5038229;28;19941;-73
2022/12/31 00:30:15;;;;;;;;;;;19.80;99.90;;;;;;5048416;28;19913;-74
2022/12/31 00:32:40;;;;;;;;;;;19.70;99.90;;;;;;5046889;28;20569;-75
2022/12/31 00:35:06;;;;;;;;;;;19.70;99.90;;;;;;5044476;28;19917;-72
2022/12/31 00:37:32;;;;;;;;;;;19.80;99.90;;;;;;5038829;28;20003;-72
2022/12/31 00:39:57;;;;;;;;;;;19.70;99.90;;;;;;5041905;28;20051;-75
2022/12/31 00:42:22;;;;;;;;;;;19.90;99.90;;;;;;5036873;28;19909;-72
2022/12/31 00:44:48;;;;;;;;;;;19.90;99.90;;;;;;5043524;28;20326;-73
2022/12/31 00:47:13;;;;;;;;;;;19.80;99.90;;;;;;5042085;28;19920;-73
2022/12/31 00:49:39;;;;;;;;;;;19.80;99.90;;;;;;5044956;28;19987;-72
2022/12/31 00:52:05;;;;;;;;;;;20.00;99.90;;;;;;5038540;28;19920;-73
2022/12/31 00:54:30;;;;;;;;;;;19.90;99.90;;;;;;5039291;28;19909;-71
2022/12/31 00:56:55;;;;;;;;;;;20.00;99.90;;;;;;5029372;28;19909;-71
2022/12/31 00:59:21;;;;;;;;;;;19.90;99.90;;;;;;5045254;28;19916;-74
2022/12/31 01:01:46;;;;;;;;;;;19.80;99.90;;;;;;5031286;28;20331;-76
2022/12/31 01:04:13;;;;;;;;;;;19.80;99.90;;;;;;5044987;28;19920;-75
2022/12/31 01:06:39;;;;;;;;;;;19.90;99.90;;;;;;5036966;28;19909;-72
2022/12/31 01:09:05;;;;;;;;;;;19.80;99.90;;;;;;5030862;28;19917;-73
2022/12/31 01:11:31;;;;;;;;;;;20.00;99.90;;;;;;5037778;28;19909;-74
2022/12/31 01:13:58;;;;;;;;;;;20.00;99.90;;;;;;5030353;28;19924;-72
2022/12/31 01:16:31;;;;;;;;;;;19.70;99.90;;;;;;5037630;28;19923;-73
2022/12/31 01:18:58;;;;;;;;;;;19.80;99.90;;;;;;5045427;28;20021;-73
2022/12/31 01:21:23;;;;;;;;;;;19.90;99.90;;;;;;5038376;28;19913;-73
2022/12/31 01:23:49;;;;;;;;;;;19.90;99.90;;;;;;5035186;28;19913;-71
2022/12/31 01:26:15;;;;;;;;;;;19.80;99.90;;;;;;5042131;28;20383;-73
2022/12/31 01:28:41;;;;;;;;;;;19.70;99.90;;;;;;5036800;28;20007;-73
2022/12/31 01:31:07;;;;;;;;;;;19.60;99.90;;;;;;5043795;28;20592;-74
2022/12/31 01:33:33;;;;;;;;;;;19.60;99.90;;;;;;5034139;28;19955;-71
2022/12/31 01:36:02;;;;;;;;;;;19.50;99.90;;;;;;5040208;28;19909;-72
2022/12/31 01:38:28;;;;;;;;;;;19.60;99.90;;;;;;5035028;28;19951;-73
2022/12/31 01:40:53;;;;;;;;;;;19.60;99.90;;;;;;5033079;28;19960;-74
2022/12/31 01:43:19;;;;;;;;;;;19.50;99.90;;;;;;5030404;28;19999;-73
2022/12/31 01:45:46;;;;;;;;;;;19.60;99.90;;;;;;5028106;28;19913;-75
2022/12/31 01:48:13;;;;;;;;;;;19.50;99.90;;;;;;5036007;28;19912;-73
2022/12/31 01:50:39;;;;;;;;;;;19.30;99.90;;;;;;5031858;28;19975;-72
2022/12/31 01:53:06;;;;;;;;;;;19.50;99.90;;;;;;5036901;28;20317;-74
2022/12/31 01:55:34;;;;;;;;;;;19.20;99.90;;;;;;5038964;28;19909;-72
2022/12/31 01:58:10;;;;;;;;;;;19.40;99.90;;;;;;5040142;28;19908;-72
2022/12/31 02:00:36;;;;;;;;;;;19.40;99.90;;;;;;5030373;28;19949;-72
2022/12/31 02:03:04;;;;;;;;;;;19.20;99.90;;;;;;5041172;28;19944;-73
2022/12/31 02:05:32;;;;;;;;;;;19.30;99.90;;;;;;5045136;28;19913;-72
2022/12/31 02:07:58;;;;;;;;;;;19.30;99.90;;;;;;5033553;28;19995;-72
2022/12/31 02:10:24;;;;;;;;;;;19.20;99.90;;;;;;5030555;28;20515;-73
2022/12/31 02:12:50;;;;;;;;;;;19.10;99.90;;;;;;5038136;28;19916;-73
2022/12/31 02:15:17;;;;;;;;;;;19.00;99.90;;;;;;5041509;28;19991;-73
2022/12/31 02:18:02;;;;;;;;;;;18.90;99.90;;;;;;5035206;28;19913;-74
2022/12/31 02:20:41;;;;;;;;;;;19.10;99.90;;;;;;5032420;28;19917;-73
2022/12/31 02:23:19;;;;;;;;;;;18.90;99.90;;;;;;5039628;28;19920;-73
2022/12/31 02:26:03;;;;;;;;;;;19.00;99.90;;;;;;5036046;28;20031;-73
2022/12/31 02:28:47;;;;;;;;;;;18.80;99.90;;;;;;5031850;28;19959;-71
2022/12/31 02:31:24;;;;;;;;;;;18.70;99.90;;;;;;5032023;28;20397;-74
2022/12/31 02:33:55;;;;;;;;;;;18.80;99.90;;;;;;5035577;28;20283;-74
2022/12/31 02:36:26;;;;;;;;;;;18.70;99.90;;;;;;5032779;28;20349;-73
2022/12/31 02:38:52;;;;;;;;;;;18.50;99.90;;;;;;5037012;28;20545;-73
2022/12/31 02:44:22;;;;;;;;;;;18.60;99.90;;;;;;5032546;28;19916;-74
2022/12/31 02:46:53;;;;;;;;;;;18.60;99.90;;;;;;5044079;28;19916;-72
2022/12/31 02:49:32;;;;;;;;;;;18.20;99.90;;;;;;5034901;28;20753;-73
2022/12/31 02:52:09;;;;;;;;;;;18.40;99.90;;;;;;5041329;28;19909;-74
2022/12/31 02:54:53;;;;;;;;;;;18.30;99.90;;;;;;5038791;28;19913;-73
2022/12/31 02:57:21;;;;;;;;;;;18.20;99.90;;;;;;5033651;28;19945;-73
2022/12/31 03:02:43;;;;;;;;;;;18.30;99.90;;;;;;5040624;28;20595;-72
2022/12/31 03:05:10;;;;;;;;;;;18.30;99.90;;;;;;5049135;28;20090;-73
2022/12/31 03:07:38;;;;;;;;;;;18.40;99.90;;;;;;5038225;28;19952;-74
2022/12/31 03:10:04;;;;;;;;;;;18.30;99.90;;;;;;5049624;28;20059;-76
2022/12/31 03:12:46;;;;;;;;;;;18.40;99.90;;;;;;5047028;28;20568;-72
2022/12/31 03:15:19;;;;;;;;;;;18.10;99.90;;;;;;5035267;28;20174;-74
2022/12/31 03:18:03;;;;;;;;;;;18.30;99.90;;;;;;5045807;28;19909;-71
2022/12/31 03:23:19;;;;;;;;;;;18.50;99.90;;;;;;5033652;28;19990;-73
2022/12/31 03:25:45;;;;;;;;;;;18.20;99.90;;;;;;5044739;28;20243;-72
2022/12/31 03:28:12;;;;;;;;;;;18.50;99.90;;;;;;5046595;28;20417;-69
2022/12/31 03:30:39;;;;;;;;;;;18.30;99.90;;;;;;5037495;28;19917;-73
2022/12/31 03:33:05;;;;;;;;;;;18.40;99.90;;;;;;5040172;28;20368;-72
2022/12/31 03:35:31;;;;;;;;;;;18.60;99.90;;;;;;5045373;28;20297;-73
2022/12/31 03:37:57;;;;;;;;;;;18.50;99.90;;;;;;5034792;28;20330;-75
2022/12/31 03:40:23;;;;;;;;;;;18.30;99.90;;;;;;5040533;28;19913;-73
2022/12/31 03:42:49;;;;;;;;;;;18.30;99.90;;;;;;5037935;28;19916;-73
2022/12/31 03:45:15;;;;;;;;;;;18.30;99.90;;;;;;5039460;28;20550;-74
2022/12/31 03:47:40;;;;;;;;;;;18.30;99.90;;;;;;5035743;28;19913;-74
2022/12/31 03:50:06;;;;;;;;;;;18.50;99.90;;;;;;5039138;28;19920;-74
2022/12/31 03:52:32;;;;;;;;;;;18.50;99.90;;;;;;5037133;28;20452;-73
2022/12/31 03:54:57;;;;;;;;;;;18.40;99.90;;;;;;5037603;28;19912;-72
2022/12/31 03:57:23;;;;;;;;;;;18.60;99.90;;;;;;5045473;28;19952;-72
2022/12/31 03:59:48;;;;;;;;;;;18.50;99.90;;;;;;5040665;28;19921;-72
2022/12/31 04:02:14;;;;;;;;;;;18.40;99.90;;;;;;5042314;28;19909;-74
2022/12/31 04:04:39;;;;;;;;;;;18.50;99.90;;;;;;5044548;28;19917;-73
2022/12/31 04:07:05;;;;;;;;;;;18.60;99.90;;;;;;5036936;28;19908;-71
2022/12/31 04:09:30;;;;;;;;;;;18.50;99.90;;;;;;5040794;28;19975;-72
2022/12/31 04:11:56;;;;;;;;;;;18.30;99.90;;;;;;5044066;28;19951;-71
2022/12/31 04:14:21;;;;;;;;;;;18.40;99.90;;;;;;5043444;28;19943;-73
2022/12/31 04:16:47;;;;;;;;;;;18.20;99.90;;;;;;5041624;28;19973;-74
2022/12/31 04:19:12;;;;;;;;;;;18.40;99.90;;;;;;5035680;28;19909;-74
2022/12/31 04:21:38;;;;;;;;;;;18.60;99.90;;;;;;5044538;28;19916;-72
2022/12/31 04:24:03;;;;;;;;;;;18.60;99.90;;;;;;5034885;28;20294;-73
2022/12/31 04:26:29;;;;;;;;;;;18.70;99.90;;;;;;5044845;28;19913;-72
2022/12/31 04:28:55;;;;;;;;;;;18.80;99.90;;;;;;5032721;28;19976;-69
2022/12/31 04:31:20;;;;;;;;;;;18.90;99.90;;;;;;5037520;28;19913;-73
2022/12/31 04:33:46;;;;;;;;;;;19.20;99.90;;;;;;5034113;28;20435;-72
2022/12/31 04:36:11;;;;;;;;;;;19.00;99.90;;;;;;5041576;28;20010;-73
2022/12/31 04:38:37;;;;;;;;;;;19.30;99.90;;;;;;5035540;28;19912;-72
2022/12/31 04:41:18;;;;;;;;;;;19.40;99.90;;;;;;5041145;28;19913;-73
2022/12/31 04:43:45;;;;;;;;;;;19.30;99.90;;;;;;5035228;28;19950;-73
2022/12/31 04:46:11;;;;;;;;;;;19.30;99.90;;;;;;5036364;28;19932;-72
2022/12/31 04:48:37;;;;;;;;;;;19.50;99.90;;;;;;5031203;28;19920;-73
2022/12/31 04:51:02;;;;;;;;;;;19.60;99.90;;;;;;5041473;28;19943;-73
2022/12/31 04:53:28;;;;;;;;;;;19.70;99.90;;;;;;5030978;28;19911;-72
2022/12/31 04:55:53;;;;;;;;;;;19.70;99.90;;;;;;5033309;28;19997;-73
2022/12/31 04:58:19;;;;;;;;;;;19.60;99.90;;;;;;5035649;28;19932;-72
2022/12/31 05:00:45;;;;;;;;;;;19.70;99.90;;;;;;5035859;28;19916;-74
2022/12/31 05:03:13;;;;;;;;;;;19.70;99.90;;;;;;5055447;28;19912;-73
2022/12/31 05:05:38;;;;;;;;;;;19.80;99.90;;;;;;5056651;28;19948;-75
2022/12/31 05:08:04;;;;;;;;;;;19.80;99.90;;;;;;5046325;28;19905;-73
2022/12/31 05:10:29;;;;;;;;;;;19.70;99.90;;;;;;5039114;28;19920;-73
2022/12/31 05:12:56;;;;;;;;;;;19.70;99.90;;;;;;5040070;28;20278;-72
2022/12/31 05:15:22;;;;;;;;;;;20.00;99.90;;;;;;5045790;28;20389;-73
2022/12/31 05:17:47;;;;;;;;;;;20.00;99.90;;;;;;5044179;28;19908;-73
2022/12/31 05:20:13;;;;;;;;;;;19.80;99.90;;;;;;5042887;28;19905;-73
2022/12/31 05:22:38;;;;;;;;;;;19.80;99.90;;;;;;5039952;28;19909;-72
2022/12/31 05:25:04;;;;;;;;;;;20.10;99.90;;;;;;5041616;28;20000;-74
2022/12/31 05:27:32;;;;;;;;;;;20.10;99.90;;;;;;5044202;28;19955;-71
2022/12/31 05:29:58;;;;;;;;;;;20.10;99.90;;;;;;5043191;28;19983;-73
2022/12/31 05:32:24;;;;;;;;;;;20.10;99.90;;;;;;5041582;28;20382;-72
2022/12/31 05:34:49;;;;;;;;;;;20.10;99.90;;;;;;5044255;28;19955;-73
2022/12/31 05:37:15;;;;;;;;;;;20.30;99.90;;;;;;5045486;28;19908;-74
2022/12/31 05:39:40;;;;;;;;;;;20.10;99.90;;;;;;5046534;28;19912;-74
2022/12/31 05:42:05;;;;;;;;;;;20.20;99.90;;;;;;5046668;28;20417;-73
2022/12/31 05:44:31;;;;;;;;;;;20.20;99.90;;;;;;5045385;28;19909;-73
2022/12/31 05:46:56;;;;;;;;;;;20.20;99.90;;;;;;5047407;28;19916;-71
2022/12/31 05:49:22;;;;;;;;;;;20.20;99.90;;;;;;5045014;28;19912;-73
2022/12/31 05:51:47;;;;;;;;;;;20.30;99.90;;;;;;5046106;28;19909;-76
2022/12/31 05:54:13;;;;;;;;;;;20.30;99.90;;;;;;5044901;28;19921;-73
2022/12/31 05:56:38;;;;;;;;;;;20.20;99.90;;;;;;5049535;28;19916;-73
2022/12/31 05:59:04;;;;;;;;;;;20.60;99.90;;;;;;5050335;28;19905;-74
2022/12/31 06:01:29;;;;;;;;;;;20.30;99.90;;;;;;5053961;28;20502;-73
2022/12/31 06:03:55;;;;;;;;;;;20.60;99.90;;;;;;5051908;28;20386;-74
2022/12/31 06:06:20;;;;;;;;;;;20.40;99.90;;;;;;5049690;28;19913;-72
2022/12/31 06:08:49;;;;;;;;;;;20.40;99.90;;;;;;5050924;28;19916;-73
2022/12/31 06:11:14;;;;;;;;;;;20.60;99.90;;;;;;5053194;28;19948;-72
2022/12/31 06:13:40;;;;;;;;;;;20.80;99.90;;;;;;5050316;28;19905;-75
2022/12/31 06:16:06;;;;;;;;;;;21.00;99.90;;;;;;5051590;28;19908;-72
2022/12/31 06:18:31;;;;;;;;;;;21.00;99.90;;;;;;5047695;28;20407;-75
2022/12/31 06:20:57;;;;;;;;;;;21.30;99.90;;;;;;5045386;28;19939;-73
2022/12/31 06:23:23;;;;;;;;;;;21.20;99.90;;;;;;5042927;28;20046;-73
2022/12/31 06:25:48;;;;;;;;;;;21.30;99.90;;;;;;5043018;28;19987;-73
2022/12/31 06:28:14;;;;;;;;;;;21.80;99.90;;;;;;5042671;28;19962;-70
2022/12/31 06:30:39;;;;;;;;;;;21.80;99.90;;;;;;5043850;28;19917;-73
2022/12/31 06:33:05;;;;;;;;;;;21.70;99.90;;;;;;5040277;28;19913;-74
2022/12/31 06:35:30;;;;;;;;;;;21.90;99.90;;;;;;5042213;28;20004;-73
2022/12/31 06:37:56;;;;;;;;;;;22.00;99.90;;;;;;5044267;28;19908;-73
2022/12/31 06:40:21;;;;;;;;;;;22.00;99.90;;;;;;5036288;28;19921;-73
2022/12/31 06:42:47;;;;;;;;;;;21.90;99.90;;;;;;5046241;28;20396;-73
2022/12/31 06:45:12;;;;;;;;;;;21.90;99.90;;;;;;5042173;28;19924;-74
2022/12/31 06:47:38;;;;;;;;;;;22.20;99.90;;;;;;5041700;28;19969;-75
2022/12/31 06:50:03;;;;;;;;;;;22.30;99.90;;;;;;5038193;28;19913;-72
2022/12/31 06:52:29;;;;;;;;;;;22.30;99.90;;;;;;5043109;28;19913;-74
2022/12/31 06:54:54;;;;;;;;;;;22.30;99.90;;;;;;5039170;28;20346;-75
2022/12/31 06:57:22;;;;;;;;;;;22.70;99.90;;;;;;5047216;28;19966;-74
2022/12/31 06:59:47;;;;;;;;;;;22.60;99.90;;;;;;5047953;28;20115;-74
2022/12/31 07:02:22;;;;;;;;;;;22.60;99.90;;;;;;5045344;28;19920;-72
2022/12/31 07:05:00;;;;;;;;;;;22.80;99.90;;;;;;5043401;28;20535;-72
2022/12/31 07:07:35;;;;;;;;;;;22.60;99.90;;;;;;5050547;28;19935;-73
2022/12/31 07:10:22;;;;;;;;;;;22.90;99.90;;;;;;5049255;28;19909;-72
2022/12/31 07:12:52;;;;;;;;;;;22.80;99.90;;;;;;5056706;28;19999;-73
2022/12/31 07:15:24;;;;;;;;;;;23.00;99.90;;;;;;5042145;28;19952;-71
2022/12/31 07:17:50;;;;;;;;;;;23.10;99.90;;;;;;5036405;28;20768;-72
2022/12/31 07:20:17;;;;;;;;;;;23.30;99.90;;;;;;5046618;28;19952;-71
2022/12/31 07:22:43;;;;;;;;;;;22.90;99.90;;;;;;5042263;28;20034;-71
2022/12/31 07:25:11;;;;;;;;;;;23.20;99.90;;;;;;5044785;28;20039;-72
2022/12/31 07:27:37;;;;;;;;;;;23.30;99.90;;;;;;5045890;28;19924;-72
2022/12/31 07:30:02;;;;;;;;;;;22.90;99.90;;;;;;5047364;28;19917;-72
2022/12/31 07:32:38;;;;;;;;;;;22.80;99.90;;;;;;5034456;28;19916;-73
2022/12/31 07:35:06;;;;;;;;;;;22.80;99.90;;;;;;5045053;28;19967;-73
2022/12/31 07:37:46;;;;;;;;;;;22.60;99.90;;;;;;5043058;28;19917;-74
2022/12/31 07:40:12;;;;;;;;;;;22.60;99.90;;;;;;5044679;28;19916;-73
2022/12/31 07:42:56;;;;;;;;;;;22.50;99.90;;;;;;5042438;28;19920;-74
2022/12/31 07:45:28;;;;;;;;;;;22.50;99.90;;;;;;5045118;28;19913;-72
2022/12/31 07:47:53;;;;;;;;;;;22.40;99.90;;;;;;5046024;28;19920;-72
2022/12/31 07:50:19;;;;;;;;;;;22.20;99.90;;;;;;5045646;28;20331;-72
2022/12/31 07:52:44;;;;;;;;;;;22.20;99.90;;;;;;5045568;28;19916;-73
2022/12/31 07:55:10;;;;;;;;;;;22.20;99.90;;;;;;5046980;28;19909;-70
2022/12/31 07:57:39;;;;;;;;;;;22.00;99.90;;;;;;5045310;28;19951;-71
2022/12/31 08:00:08;;;;;;;;;;;22.00;99.90;;;;;;5041763;28;19932;-71
2022/12/31 08:02:40;;;;;;;;;;;21.80;99.90;;;;;;5035818;28;20537;-70
2022/12/31 08:05:25;;;;;;;;;;;21.90;99.90;;;;;;5041668;28;19921;-74
2022/12/31 08:07:55;;;;;;;;;;;21.90;99.90;;;;;;5043431;28;19961;-74
2022/12/31 08:10:39;;;;;;;;;;;21.80;99.90;;;;;;5045724;28;19982;-72
2022/12/31 08:13:08;;;;;;;;;;;21.70;99.90;;;;;;5042203;28;19940;-71
2022/12/31 08:15:35;;;;;;;;;;;21.50;99.90;;;;;;5041944;28;20004;-72
2022/12/31 08:18:01;;;;;;;;;;;21.50;99.90;;;;;;5039608;28;20671;-72
2022/12/31 08:20:28;;;;;;;;;;;21.60;99.90;;;;;;5041016;28;19928;-72
2022/12/31 08:23:10;;;;;;;;;;;21.70;99.90;;;;;;5041692;28;19913;-72
2022/12/31 08:25:54;;;;;;;;;;;21.70;99.90;;;;;;5043019;28;20554;-74
2022/12/31 08:28:25;;;;;;;;;;;21.50;99.90;;;;;;5042840;28;19991;-73
2022/12/31 08:31:14;;;;;;;;;;;21.50;99.90;;;;;;5044510;28;19913;-72
2022/12/31 08:33:47;;;;;;;;;;;21.70;99.90;;;;;;5035875;28;19963;-74
2022/12/31 08:36:17;;;;;;;;;;;21.70;99.90;;;;;;5033687;28;19952;-75
2022/12/31 08:38:49;;;;;;;;;;;21.70;99.90;;;;;;5042998;28;19920;-74
2022/12/31 08:41:18;;;;;;;;;;;21.70;99.90;;;;;;5043711;28;19969;-77
2022/12/31 08:43:44;;;;;;;;;;;21.80;99.90;;;;;;5037142;28;20045;-73
2022/12/31 08:46:17;;;;;;;;;;;21.70;99.90;;;;;;5045818;28;20019;-72
2022/12/31 08:48:44;;;;;;;;;;;21.70;99.90;;;;;;5037890;28;19916;-73
2022/12/31 08:51:22;;;;;;;;;;;21.90;99.90;;;;;;5045706;28;19913;-73
2022/12/31 08:53:48;;;;;;;;;;;21.90;99.90;;;;;;5046479;28;19970;-72
2022/12/31 08:56:31;;;;;;;;;;;22.00;99.90;;;;;;5049461;28;19913;-72
2022/12/31 08:59:02;;;;;;;;;;;21.80;99.90;;;;;;5035980;28;19973;-74
2022/12/31 09:01:30;;;;;;;;;;;21.80;99.90;;;;;;5045201;28;19989;-74
2022/12/31 09:03:59;;;;;;;;;;;22.00;99.90;;;;;;5040857;28;19924;-72
2022/12/31 09:06:28;;;;;;;;;;;22.00;99.90;;;;;;5044300;28;19958;-72
2022/12/31 09:09:07;;;;;;;;;;;22.20;99.90;;;;;;5042005;28;19917;-71
2022/12/31 09:11:50;;;;;;;;;;;22.20;99.90;;;;;;5039815;28;19961;-75
2022/12/31 09:14:15;;;;;;;;;;;22.00;99.90;;;;;;5038814;28;20413;-71
2022/12/31 09:16:40;;;;;;;;;;;22.00;99.90;;;;;;5043354;28;20441;-72
2022/12/31 09:19:07;;;;;;;;;;;22.20;99.90;;;;;;5039726;28;20035;-72
2022/12/31 09:21:33;;;;;;;;;;;22.10;99.90;;;;;;5041529;28;19966;-74
2022/12/31 09:23:58;;;;;;;;;;;22.10;99.90;;;;;;5041605;28;19928;-76
2022/12/31 09:26:27;;;;;;;;;;;22.10;99.90;;;;;;5042578;28;19927;-73
2022/12/31 09:28:52;;;;;;;;;;;22.10;99.90;;;;;;5040687;28;19916;-75
2022/12/31 09:31:25;;;;;;;;;;;21.80;99.90;;;;;;5043416;28;19928;-73
2022/12/31 09:34:05;;;;;;;;;;;21.80;99.90;;;;;;5043498;28;19912;-73
2022/12/31 09:36:35;;;;;;;;;;;21.60;99.90;;;;;;5035561;28;19909;-73
2022/12/31 09:39:00;;;;;;;;;;;21.70;99.90;;;;;;5037497;28;20310;-73
2022/12/31 09:41:29;;;;;;;;;;;21.40;99.90;;;;;;5045206;28;19917;-73
2022/12/31 09:44:24;;;;;;;;;;;21.30;99.90;;;;;;5040535;28;19925;-74
2022/12/31 09:47:08;;;;;;;;;;;21.30;99.90;;;;;;4983601;28;20138;-73
2022/12/31 09:49:52;;;;;;;;;;;21.20;99.90;;;;;;5043195;28;19967;-74
2022/12/31 09:52:24;;;;;;;;;;;20.90;99.90;;;;;;5037899;28;19917;-73
2022/12/31 09:55:09;;;;;;;;;;;20.90;99.90;;;;;;5042692;28;19921;-73
2022/12/31 09:58:01;;;;;;;;;;;20.80;99.90;;;;;;5036333;28;19912;-76
2022/12/31 10:00:37;;;;;;;;;;;20.70;99.90;;;;;;5021877;28;19998;-73
2022/12/31 10:03:16;;;;;;;;;;;20.70;99.90;;;;;;5039121;28;19909;-74
2022/12/31 10:05:58;;;;;;;;;;;20.70;99.90;;;;;;5041800;28;20031;-76
2022/12/31 10:08:32;;;;;;;;;;;20.80;99.90;;;;;;5037464;28;19921;-73
2022/12/31 10:11:01;;;;;;;;;;;20.80;99.90;;;;;;5041192;28;20362;-75
2022/12/31 10:13:34;;;;;;;;;;;20.70;99.90;;;;;;5040067;28;19916;-71
2022/12/31 10:16:14;;;;;;;;;;;20.70;99.90;;;;;;5033087;28;19921;-73
2022/12/31 10:18:59;;;;;;;;;;;20.70;99.90;;;;;;5035199;28;20004;-75
2022/12/31 10:21:27;;;;;;;;;;;20.70;99.90;;;;;;5043855;28;19909;-75
2022/12/31 10:24:12;;;;;;;;;;;20.60;99.90;;;;;;5031045;28;19909;-74
2022/12/31 10:26:53;;;;;;;;;;;20.60;99.90;;;;;;5032868;28;19952;-76
2022/12/31 10:29:24;;;;;;;;;;;20.50;99.90;;;;;;5032135;28;19921;-75
2022/12/31 10:32:15;;;;;;;;;;;20.40;99.90;;;;;;5041386;28;19968;-74
2022/12/31 10:34:41;;;;;;;;;;;20.40;99.90;;;;;;5037718;28;19913;-76
2022/12/31 10:37:13;;;;;;;;;;;20.40;99.90;;;;;;5045964;28;19924;-76
2022/12/31 10:39:53;;;;;;;;;;;20.30;99.90;;;;;;5044046;28;19952;-74
2022/12/31 10:42:18;;;;;;;;;;;20.40;99.90;;;;;;5037953;28;19916;-77
2022/12/31 10:44:56;;;;;;;;;;;20.20;99.90;;;;;;5040388;28;19924;-76
2022/12/31 10:47:36;;;;;;;;;;;20.30;99.90;;;;;;5037448;28;20363;-77
2022/12/31 10:50:15;;;;;;;;;;;20.20;99.90;;;;;;5038484;28;20407;-75
2022/12/31 10:52:59;;;;;;;;;;;20.30;99.90;;;;;;5038126;28;19924;-73
2022/12/31 10:55:43;;;;;;;;;;;20.40;99.90;;;;;;5042010;28;19963;-75
2022/12/31 10:58:08;;;;;;;;;;;20.40;99.90;;;;;;5033947;28;20443;-74
2022/12/31 11:00:39;;;;;;;;;;;20.50;99.90;;;;;;5040551;28;19917;-75
2022/12/31 11:03:36;;;;;;;;;;;20.40;99.90;;;;;;5030661;28;20096;-73
2022/12/31 11:06:08;;;;;;;;;;;20.60;99.90;;;;;;5032751;28;19961;-74
2022/12/31 11:08:59;;;;;;;;;;;20.60;99.90;;;;;;5029693;28;19910;-74
2022/12/31 11:11:38;;;;;;;;;;;20.70;99.90;;;;;;5037041;28;19914;-78
2022/12/31 11:14:22;;;;;;;;;;;20.60;99.90;;;;;;5030594;28;19991;-74
2022/12/31 11:16:56;;;;;;;;;;;20.60;99.90;;;;;;5032045;28;20674;-75
2022/12/31 11:19:38;;;;;;;;;;;20.40;99.90;;;;;;5030017;28;19913;-75
2022/12/31 11:22:07;;;;;;;;;;;20.30;99.90;;;;;;5027539;28;19917;-75
2022/12/31 11:24:44;;;;;;;;;;;20.20;99.90;;;;;;5031916;28;20001;-73
2022/12/31 11:27:36;;;;;;;;;;;20.00;99.90;;;;;;5050651;28;19920;-73
2022/12/31 11:30:20;;;;;;;;;;;19.90;99.90;;;;;;5049350;28;19978;-73
2022/12/31 11:32:54;;;;;;;;;;;19.80;99.90;;;;;;5036503;28;19923;-75
2022/12/31 11:35:36;;;;;;;;;;;19.70;99.90;;;;;;5033017;28;19917;-77
2022/12/31 11:38:13;;;;;;;;;;;19.60;99.90;;;;;;5051217;28;20444;-74
2022/12/31 11:40:42;;;;;;;;;;;19.60;99.90;;;;;;5055765;28;20302;-74
2022/12/31 11:43:18;;;;;;;;;;;19.60;99.90;;;;;;5046086;28;19917;-75
2022/12/31 11:46:03;;;;;;;;;;;19.60;99.90;;;;;;5045203;28;20676;-74
2022/12/31 11:48:47;;;;;;;;;;;19.60;99.90;;;;;;5048213;28;19947;-74
2022/12/31 11:51:26;;;;;;;;;;;19.60;99.90;;;;;;5041572;28;19939;-72
2022/12/31 11:53:56;;;;;;;;;;;19.50;99.90;;;;;;5042253;28;19936;-75
2022/12/31 11:56:29;;;;;;;;;;;19.60;99.90;;;;;;5047345;28;19909;-76
2022/12/31 11:58:55;;;;;;;;;;;19.60;99.90;;;;;;5034822;28;19917;-75
2022/12/31 12:01:24;;;;;;;;;;;19.50;99.90;;;;;;5031683;28;19971;-76
2022/12/31 12:03:50;;;;;;;;;;;19.50;99.90;;;;;;5044203;28;19932;-74
2022/12/31 12:06:16;;;;;;;;;;;19.40;99.90;;;;;;5046121;28;19921;-74
2022/12/31 12:08:43;;;;;;;;;;;19.50;99.90;;;;;;5046320;28;19952;-74
2022/12/31 12:11:18;;;;;;;;;;;19.50;99.90;;;;;;5042213;28;20155;-76
2022/12/31 12:13:43;;;;;;;;;;;19.40;99.90;;;;;;5044750;28;19912;-73
2022/12/31 12:16:09;;;;;;;;;;;19.40;99.90;;;;;;5040593;28;19960;-76
2022/12/31 12:18:48;;;;;;;;;;;19.40;99.90;;;;;;5037880;28;19988;-75
2022/12/31 12:21:17;;;;;;;;;;;19.40;99.90;;;;;;5043061;28;19912;-74
2022/12/31 12:23:55;;;;;;;;;;;19.40;99.90;;;;;;5032022;28;19940;-76
2022/12/31 12:26:37;;;;;;;;;;;19.30;99.90;;;;;;5038133;28;19917;-77
2022/12/31 12:29:08;;;;;;;;;;;19.30;99.90;;;;;;5037953;28;19924;-73
2022/12/31 12:31:33;;;;;;;;;;;19.30;99.90;;;;;;5038812;28;19955;-75
2022/12/31 12:33:59;;;;;;;;;;;19.20;99.90;;;;;;5040421;28;19909;-74
2022/12/31 12:36:24;;;;;;;;;;;19.10;99.90;;;;;;5032585;28;20279;-73
2022/12/31 12:38:59;;;;;;;;;;;19.00;99.90;;;;;;5042478;28;19913;-75
2022/12/31 12:41:26;;;;;;;;;;;18.90;99.90;;;;;;5032276;28;20005;-74
2022/12/31 12:44:13;;;;;;;;;;;18.90;99.90;;;;;;5039223;28;20039;-77
2022/12/31 12:46:43;;;;;;;;;;;18.90;99.90;;;;;;5045612;28;20440;-73
2022/12/31 12:49:27;;;;;;;;;;;18.80;99.90;;;;;;5044168;28;19915;-75
2022/12/31 12:52:11;;;;;;;;;;;18.80;99.90;;;;;;5040543;28;20564;-74
2022/12/31 12:54:55;;;;;;;;;;;18.90;99.90;;;;;;5037612;28;19917;-75
2022/12/31 12:57:38;;;;;;;;;;;18.80;99.90;;;;;;5035507;28;19968;-75
2022/12/31 13:00:07;;;;;;;;;;;18.80;99.90;;;;;;5042395;28;19988;-76
2022/12/31 13:02:51;;;;;;;;;;;18.80;99.90;;;;;;5037406;28;19909;-74
2022/12/31 13:05:35;;;;;;;;;;;18.80;99.90;;;;;;5037689;28;20027;-75
2022/12/31 13:08:25;;;;;;;;;;;18.90;99.90;;;;;;5039517;28;19916;-77
2022/12/31 13:11:02;;;;;;;;;;;18.90;99.90;;;;;;5033164;28;20000;-75
2022/12/31 13:13:46;;;;;;;;;;;18.90;99.90;;;;;;5040140;28;19908;-76
2022/12/31 13:16:21;;;;;;;;;;;18.90;99.90;;;;;;5035068;28;19921;-73
2022/12/31 13:18:58;;;;;;;;;;;18.90;99.90;;;;;;5039059;28;19975;-73
2022/12/31 13:21:43;;;;;;;;;;;19.00;99.90;;;;;;5041268;28;19913;-73
2022/12/31 13:24:18;;;;;;;;;;;19.00;99.90;;;;;;5045100;28;19944;-74
2022/12/31 13:26:47;;;;;;;;;;;19.10;99.90;;;;;;5041190;28;19974;-74
2022/12/31 13:29:21;;;;;;;;;;;19.10;99.90;;;;;;5031982;28;20371;-75
2022/12/31 13:31:47;;;;;;;;;;;19.10;99.90;;;;;;5040698;28;19913;-75
2022/12/31 13:34:15;;;;;;;;;;;19.10;99.90;;;;;;5033820;28;19975;-75
2022/12/31 13:36:43;;;;;;;;;;;19.10;99.90;;;;;;5044957;28;19913;-74
2022/12/31 13:39:22;;;;;;;;;;;19.10;99.90;;;;;;5038919;28;20723;-78
2022/12/31 13:41:56;;;;;;;;;;;19.00;99.90;;;;;;5034153;28;19963;-72
2022/12/31 13:44:28;;;;;;;;;;;19.00;99.90;;;;;;5041290;28;20000;-74
2022/12/31 13:47:12;;;;;;;;;;;18.90;99.90;;;;;;5035854;28;19913;-74
2022/12/31 13:49:43;;;;;;;;;;;18.80;99.90;;;;;;5039816;28;19909;-75
2022/12/31 13:52:17;;;;;;;;;;;18.60;99.90;;;;;;5040404;28;19958;-75
2022/12/31 13:54:50;;;;;;;;;;;18.50;99.90;;;;;;5039291;28;20282;-75
2022/12/31 13:57:38;;;;;;;;;;;18.30;99.90;;;;;;5043386;28;19917;-74
2022/12/31 14:00:05;;;;;;;;;;;18.10;99.90;;;;;;5062076;28;19917;-74
2022/12/31 14:02:39;;;;;;;;;;;17.80;99.90;;;;;;5059041;28;19915;-75
2022/12/31 14:05:10;;;;;;;;;;;17.70;99.90;;;;;;5066476;28;19909;-75
2022/12/31 14:07:51;;;;;;;;;;;17.50;99.90;;;;;;5067324;28;19917;-75
2022/12/31 14:10:20;;;;;;;;;;;17.30;99.90;;;;;;5061257;28;19913;-75
2022/12/31 14:12:48;;;;;;;;;;;17.20;99.90;;;;;;5049102;28;19909;-75
2022/12/31 14:15:17;;;;;;;;;;;17.00;99.90;;;;;;5060356;28;19916;-78
2022/12/31 14:17:51;;;;;;;;;;;16.40;99.90;;;;;;5058185;28;19920;-76
2022/12/31 14:20:17;;;;;;;;;;;16.30;99.90;;;;;;5058996;28;20004;-76
2022/12/31 14:22:51;;;;;;;;;;;16.20;99.90;;;;;;5059936;28;19909;-75
2022/12/31 14:25:24;;;;;;;;;;;16.20;99.90;;;;;;5044676;28;19936;-74
2022/12/31 14:27:50;;;;;;;;;;;16.10;99.90;;;;;;5034164;28;19923;-75
2022/12/31 14:30:20;;;;;;;;;;;16.10;99.90;;;;;;5040621;28;19913;-75
2022/12/31 14:32:52;;;;;;;;;;;16.10;99.90;;;;;;5033305;28;19936;-74
2022/12/31 14:35:20;;;;;;;;;;;16.10;99.90;;;;;;5038054;28;20067;-75
2022/12/31 14:37:59;;;;;;;;;;;16.00;99.90;;;;;;5043273;28;19939;-75
2022/12/31 14:40:33;;;;;;;;;;;16.00;99.90;;;;;;5034662;28;19920;-72
2022/12/31 14:43:18;;;;;;;;;;;16.00;99.90;;;;;;5043336;28;19913;-76
2022/12/31 14:45:50;;;;;;;;;;;15.90;99.90;;;;;;5039760;28;19912;-74